createdAt,value
2018-09-19T00:00:11.349Z,23.10
2018-09-19T00:02:40.172Z,14.20
2018-09-19T00:05:08.727Z,19.70
2018-09-19T00:07:37.229Z,22.27
2018-09-19T00:10:05.873Z,15.47
2018-09-19T00:12:34.391Z,13.30
2018-09-19T00:15:02.997Z,17.60
2018-09-19T00:17:31.553Z,17.27
2018-09-19T00:20:00.169Z,16.87
2018-09-19T00:22:28.718Z,14.40
2018-09-19T00:24:57.215Z,18.63
2018-09-19T00:27:25.750Z,16.80
2018-09-19T00:29:54.253Z,22.77
2018-09-19T00:32:22.763Z,17.63
2018-09-19T00:34:51.242Z,14.87
2018-09-19T00:37:19.778Z,14.90
2018-09-19T00:39:48.290Z,18.33
2018-09-19T00:42:16.800Z,12.53
2018-09-19T00:44:45.285Z,18.07
2018-09-19T00:47:13.743Z,18.10
2018-09-19T00:49:42.257Z,11.90
2018-09-19T00:52:10.844Z,20.43
2018-09-19T00:54:39.406Z,20.57
2018-09-19T00:57:07.925Z,21.00
2018-09-19T00:59:36.492Z,17.57
2018-09-19T01:02:05.804Z,19.00
2018-09-19T01:04:34.359Z,19.97
2018-09-19T01:07:02.873Z,24.17
2018-09-19T01:09:31.442Z,19.83
2018-09-19T01:12:00.011Z,16.17
2018-09-19T01:14:28.532Z,21.17
2018-09-19T01:16:57.036Z,29.40
2018-09-19T01:19:25.590Z,22.07
2018-09-19T01:21:54.087Z,22.67
2018-09-19T01:24:22.931Z,18.83
2018-09-19T01:26:52.326Z,13.57
2018-09-19T01:29:22.091Z,14.20
2018-09-19T01:31:53.664Z,20.10
2018-09-19T01:37:11.083Z,16.13
2018-09-19T01:39:40.591Z,19.70
2018-09-19T01:42:09.061Z,20.50
2018-09-19T01:44:37.563Z,28.03
2018-09-19T01:47:06.079Z,16.60
2018-09-19T01:49:34.576Z,18.30
2018-09-19T01:52:03.020Z,22.67
2018-09-19T01:54:31.499Z,16.43
2018-09-19T01:56:59.971Z,22.77
2018-09-19T01:59:28.460Z,22.83
2018-09-19T02:01:56.891Z,17.17
2018-09-19T02:04:25.371Z,26.37
2018-09-19T02:06:53.916Z,21.77
2018-09-19T02:09:22.400Z,19.40
2018-09-19T02:11:50.866Z,18.63
2018-09-19T02:14:19.338Z,19.63
2018-09-19T02:16:47.856Z,21.30
2018-09-19T02:19:16.280Z,20.40
2018-09-19T02:21:44.774Z,22.93
2018-09-19T02:24:13.239Z,19.10
2018-09-19T02:26:41.715Z,21.40
2018-09-19T02:29:10.199Z,21.67
2018-09-19T02:31:38.670Z,22.87
2018-09-19T02:34:07.428Z,25.07
2018-09-19T02:36:35.879Z,26.50
2018-09-19T02:39:07.751Z,22.37
2018-09-19T02:41:36.263Z,34.57
2018-09-19T02:44:04.701Z,20.60
2018-09-19T02:46:33.192Z,20.10
2018-09-19T02:49:01.685Z,22.63
2018-09-19T02:51:30.187Z,28.83
2018-09-19T02:53:58.626Z,23.43
2018-09-19T02:56:27.103Z,24.07
2018-09-19T02:58:55.591Z,22.43
2018-09-19T03:01:24.079Z,31.57
2018-09-19T03:03:52.603Z,28.47
2018-09-19T03:06:21.078Z,21.83
2018-09-19T03:08:49.548Z,30.93
2018-09-19T03:11:18.022Z,25.67
2018-09-19T03:13:46.460Z,26.10
2018-09-19T03:16:14.963Z,30.10
2018-09-19T03:18:43.449Z,27.77
2018-09-19T03:21:11.969Z,26.20
2018-09-19T03:23:40.432Z,32.57
2018-09-19T03:26:08.903Z,27.77
2018-09-19T03:28:37.360Z,28.23
2018-09-19T03:31:05.863Z,32.83
2018-09-19T03:33:34.445Z,35.50
2018-09-19T03:36:02.921Z,31.50
2018-09-19T03:38:31.395Z,27.60
2018-09-19T03:40:59.952Z,31.53
2018-09-19T03:43:28.442Z,32.57
2018-09-19T03:45:56.907Z,26.80
2018-09-19T03:48:25.413Z,33.70
2018-09-19T03:50:53.885Z,36.17
2018-09-19T03:53:22.348Z,35.43
2018-09-19T03:55:53.704Z,31.97
2018-09-19T03:58:22.241Z,30.33
2018-09-19T04:00:50.726Z,30.13
2018-09-19T04:03:19.247Z,25.27
2018-09-19T04:05:47.718Z,35.93
2018-09-19T04:08:16.276Z,29.40
2018-09-19T04:10:44.749Z,29.83
2018-09-19T04:13:13.343Z,30.00
2018-09-19T04:15:41.878Z,33.20
2018-09-19T04:18:10.456Z,33.20
2018-09-19T04:20:38.969Z,29.90
2018-09-19T04:23:07.467Z,27.40
2018-09-19T04:25:35.968Z,30.17
2018-09-19T04:28:04.464Z,25.50
2018-09-19T04:30:32.990Z,35.67
2018-09-19T04:33:01.676Z,36.33
2018-09-19T04:35:30.221Z,30.80
2018-09-19T04:37:58.702Z,38.17
2018-09-19T04:40:27.307Z,31.27
2018-09-19T04:42:55.814Z,30.53
2018-09-19T04:45:24.317Z,30.33
2018-09-19T04:47:52.890Z,31.87
2018-09-19T04:50:21.398Z,31.87
2018-09-19T04:52:50.100Z,29.97
2018-09-19T04:55:19.339Z,35.03
2018-09-19T04:57:47.816Z,32.43
2018-09-19T05:00:17.710Z,25.87
2018-09-19T05:02:46.180Z,35.07
2018-09-19T05:05:14.764Z,37.17
2018-09-19T05:07:43.246Z,33.30
2018-09-19T05:10:11.748Z,32.87
2018-09-19T05:12:40.223Z,28.67
2018-09-19T05:15:08.812Z,33.47
2018-09-19T05:17:37.251Z,33.77
2018-09-19T05:20:05.781Z,26.73
2018-09-19T05:22:34.343Z,26.63
2018-09-19T05:25:02.813Z,30.00
2018-09-19T05:27:31.288Z,25.70
2018-09-19T05:29:59.740Z,27.87
2018-09-19T05:32:28.224Z,33.17
2018-09-19T05:34:56.875Z,25.77
2018-09-19T05:37:25.392Z,27.13
2018-09-19T05:39:53.848Z,26.07
2018-09-19T05:42:22.362Z,25.73
2018-09-19T05:44:50.826Z,22.00
2018-09-19T05:47:19.344Z,22.73
2018-09-19T05:49:47.799Z,17.33
2018-09-19T05:52:16.286Z,21.70
2018-09-19T05:54:44.729Z,25.47
2018-09-19T05:57:13.235Z,22.67
2018-09-19T05:59:41.687Z,25.47
2018-09-19T06:02:10.198Z,21.93
2018-09-19T06:04:38.687Z,20.50
2018-09-19T06:07:07.185Z,16.17
2018-09-19T06:09:35.674Z,15.40
2018-09-19T06:12:04.154Z,16.70
2018-09-19T06:14:32.666Z,14.67
2018-09-19T06:17:01.130Z,16.93
2018-09-19T06:19:29.650Z,18.50
2018-09-19T06:21:58.224Z,16.37
2018-09-19T06:24:26.715Z,18.07
2018-09-19T06:26:55.247Z,14.30
2018-09-19T06:29:23.705Z,19.57
2018-09-19T06:31:52.223Z,22.87
2018-09-19T06:34:20.722Z,16.77
2018-09-19T06:36:49.248Z,18.20
2018-09-19T06:39:17.739Z,16.03
2018-09-19T06:41:46.180Z,14.63
2018-09-19T06:44:14.710Z,14.97
2018-09-19T06:46:43.202Z,15.00
2018-09-19T06:49:11.704Z,14.30
2018-09-19T06:51:40.190Z,13.37
2018-09-19T06:54:08.684Z,13.57
2018-09-19T06:56:37.185Z,14.73
2018-09-19T06:59:06.126Z,14.03
2018-09-19T07:01:34.620Z,8.70
2018-09-19T07:04:03.107Z,11.87
2018-09-19T07:06:31.650Z,14.03
2018-09-19T07:09:00.084Z,15.30
2018-09-19T07:11:28.593Z,11.80
2018-09-19T07:13:57.031Z,13.93
2018-09-19T07:16:25.517Z,11.97
2018-09-19T07:18:54.035Z,13.03
2018-09-19T07:21:22.645Z,12.73
2018-09-19T07:23:51.184Z,13.23
2018-09-19T07:26:19.614Z,6.73
2018-09-19T07:28:48.508Z,15.20
2018-09-19T07:31:16.991Z,9.07
2018-09-19T07:33:45.625Z,12.73
2018-09-19T07:36:14.291Z,11.37
2018-09-19T07:38:42.852Z,12.53
2018-09-19T07:41:11.451Z,11.57
2018-09-19T07:43:39.941Z,8.67
2018-09-19T07:46:08.430Z,11.33
2018-09-19T07:48:36.944Z,5.80
2018-09-19T07:51:05.442Z,10.87
2018-09-19T07:53:34.943Z,9.97
2018-09-19T07:56:04.152Z,12.00
2018-09-19T07:58:32.964Z,5.53
2018-09-19T08:01:01.436Z,9.03
2018-09-19T08:03:30.027Z,7.70
2018-09-19T08:05:58.485Z,9.60
2018-09-19T08:08:26.975Z,8.53
2018-09-19T08:10:55.453Z,8.97
2018-09-19T08:13:23.927Z,7.67
2018-09-19T08:15:52.363Z,7.30
2018-09-19T08:18:20.905Z,7.83
2018-09-19T08:20:49.405Z,11.13
2018-09-19T08:23:17.939Z,7.63
2018-09-19T08:25:46.390Z,6.43
2018-09-19T08:28:14.868Z,8.90
2018-09-19T08:30:43.346Z,10.57
2018-09-19T08:33:12.185Z,7.83
2018-09-19T08:35:40.687Z,10.90
2018-09-19T08:38:09.183Z,9.83
2018-09-19T08:40:37.729Z,6.87
2018-09-19T08:43:06.343Z,6.17
2018-09-19T08:45:34.841Z,5.73
2018-09-19T08:48:03.344Z,5.47
2018-09-19T08:50:31.820Z,6.33
2018-09-19T08:53:01.792Z,5.73
2018-09-19T08:55:30.406Z,4.87
2018-09-19T08:57:59.016Z,7.50
2018-09-19T09:00:27.460Z,6.13
2018-09-19T09:02:55.900Z,6.83
2018-09-19T09:05:24.426Z,12.03
2018-09-19T09:07:52.864Z,5.10
2018-09-19T09:10:21.329Z,2.93
2018-09-19T09:12:49.818Z,3.80
2018-09-19T09:15:18.333Z,6.53
2018-09-19T09:17:46.803Z,7.07
2018-09-19T09:20:15.305Z,4.73
2018-09-19T09:22:43.912Z,10.23
2018-09-19T09:25:12.426Z,5.40
2018-09-19T09:27:40.896Z,3.40
2018-09-19T09:30:09.383Z,5.30
2018-09-19T09:32:37.851Z,7.20
2018-09-19T09:35:06.561Z,6.37
2018-09-19T09:37:35.131Z,5.23
2018-09-19T09:40:03.710Z,5.80
2018-09-19T09:42:32.162Z,4.00
2018-09-19T09:45:00.629Z,4.47
2018-09-19T09:47:29.103Z,5.07
2018-09-19T09:49:57.583Z,6.63
2018-09-19T09:52:26.062Z,5.13
2018-09-19T09:54:54.551Z,5.20
2018-09-19T09:57:23.050Z,3.80
2018-09-19T09:59:51.529Z,2.23
2018-09-19T10:02:20.000Z,4.80
2018-09-19T10:04:48.449Z,4.63
2018-09-19T10:07:16.923Z,6.17
2018-09-19T10:09:45.439Z,6.57
2018-09-19T10:12:13.904Z,5.03
2018-09-19T10:14:42.356Z,5.33
2018-09-19T10:17:10.915Z,4.80
2018-09-19T10:19:39.376Z,5.13
2018-09-19T10:22:07.945Z,6.23
2018-09-19T10:24:36.467Z,6.70
2018-09-19T10:27:04.982Z,8.50
2018-09-19T10:29:33.504Z,4.70
2018-09-19T10:32:01.984Z,17.97
2018-09-19T10:34:30.686Z,6.23
2018-09-19T10:36:59.125Z,6.10
2018-09-19T10:39:27.674Z,9.60
2018-09-19T10:41:56.095Z,6.50
2018-09-19T10:44:24.602Z,6.30
2018-09-19T10:46:53.088Z,5.47
2018-09-19T10:49:21.616Z,6.90
2018-09-19T10:51:50.086Z,10.00
2018-09-19T10:54:18.689Z,5.70
2018-09-19T10:56:47.230Z,9.87
2018-09-19T10:59:15.706Z,9.67
2018-09-19T11:01:44.171Z,5.30
2018-09-19T11:04:12.674Z,5.77
2018-09-19T11:06:41.196Z,5.33
2018-09-19T11:09:11.085Z,9.43
2018-09-19T11:11:39.736Z,9.60
2018-09-19T11:14:08.308Z,4.90
2018-09-19T11:16:36.764Z,8.47
2018-09-19T11:19:05.220Z,6.67
2018-09-19T11:21:33.773Z,5.87
2018-09-19T11:24:02.227Z,8.27
2018-09-19T11:26:30.780Z,6.87
2018-09-19T11:28:59.260Z,4.90
2018-09-19T11:31:27.709Z,5.20
2018-09-19T11:33:56.306Z,10.63
2018-09-19T11:36:24.796Z,4.20
2018-09-19T11:38:53.266Z,2.60
2018-09-19T11:41:21.815Z,5.53
2018-09-19T11:43:50.251Z,5.07
2018-09-19T11:46:18.739Z,4.13
2018-09-19T11:48:47.330Z,6.00
2018-09-19T11:51:15.737Z,10.37
2018-09-19T11:53:44.257Z,2.23
2018-09-19T11:56:12.643Z,3.93
2018-09-19T11:58:41.087Z,3.77
2018-09-19T12:01:11.231Z,4.50
2018-09-19T12:03:39.737Z,5.77
2018-09-19T12:06:08.210Z,3.67
2018-09-19T12:08:36.766Z,4.37
2018-09-19T12:11:05.314Z,10.80
2018-09-19T12:13:33.769Z,8.70
2018-09-19T12:16:02.241Z,7.10
2018-09-19T12:18:30.688Z,3.47
2018-09-19T12:20:59.117Z,4.33
2018-09-19T12:23:27.624Z,7.43
2018-09-19T12:25:56.059Z,3.17
2018-09-19T12:28:24.611Z,7.33
2018-09-19T12:30:53.096Z,5.50
2018-09-19T12:33:21.945Z,8.37
2018-09-19T12:35:50.370Z,9.83
2018-09-19T12:38:18.857Z,6.07
2018-09-19T12:40:47.313Z,3.57
2018-09-19T12:43:15.816Z,7.30
2018-09-19T12:45:44.307Z,14.63
2018-09-19T12:48:12.805Z,9.20
2018-09-19T12:50:41.269Z,15.03
2018-09-19T12:53:09.874Z,8.83
2018-09-19T12:55:38.326Z,4.57
2018-09-19T12:58:06.825Z,5.60
2018-09-19T13:00:35.251Z,9.53
2018-09-19T13:03:03.740Z,7.37
2018-09-19T13:05:32.243Z,4.97
2018-09-19T13:08:00.930Z,7.37
2018-09-19T13:10:29.408Z,5.27
2018-09-19T13:12:57.884Z,6.20
2018-09-19T13:15:26.343Z,10.17
2018-09-19T13:17:54.826Z,12.93
2018-09-19T13:20:23.343Z,5.43
2018-09-19T13:22:51.815Z,7.73
2018-09-19T13:25:20.287Z,3.87
2018-09-19T13:27:48.726Z,7.13
2018-09-19T13:30:17.255Z,5.87
2018-09-19T13:32:45.767Z,4.83
2018-09-19T13:35:14.416Z,5.83
2018-09-19T13:37:42.843Z,7.97
2018-09-19T13:40:11.310Z,7.93
2018-09-19T13:42:39.835Z,5.57
2018-09-19T13:45:08.375Z,5.90
2018-09-19T13:47:36.895Z,8.07
2018-09-19T13:50:31.111Z,9.43
2018-09-19T13:52:59.582Z,7.40
2018-09-19T13:55:28.096Z,6.57
2018-09-19T13:57:56.520Z,5.67
2018-09-19T14:00:24.996Z,6.47
2018-09-19T14:02:53.428Z,8.60
2018-09-19T14:05:21.895Z,7.53
2018-09-19T14:07:50.299Z,8.03
2018-09-19T14:10:18.807Z,15.43
2018-09-19T14:12:47.270Z,15.60
2018-09-19T14:15:15.771Z,7.60
2018-09-19T14:17:44.535Z,9.50
2018-09-19T14:20:13.052Z,5.47
2018-09-19T14:22:41.612Z,7.63
2018-09-19T14:25:10.120Z,7.17
2018-09-19T14:27:38.589Z,6.10
2018-09-19T14:30:07.213Z,6.20
2018-09-19T14:32:35.707Z,9.93
2018-09-19T14:35:04.279Z,12.93
2018-09-19T14:37:33.236Z,8.57
2018-09-19T14:40:01.711Z,13.63
2018-09-19T14:42:32.217Z,5.87
2018-09-19T14:45:01.281Z,23.73
2018-09-19T14:47:30.004Z,14.37
2018-09-19T14:49:58.504Z,6.93
2018-09-19T14:52:27.079Z,8.23
2018-09-19T14:54:55.567Z,7.07
2018-09-19T14:57:24.205Z,8.17
2018-09-19T14:59:52.765Z,7.53
2018-09-19T15:02:22.039Z,6.93
2018-09-19T15:04:50.628Z,8.07
2018-09-19T15:07:20.114Z,6.30
2018-09-19T15:09:50.153Z,8.60
2018-09-19T15:12:18.702Z,7.50
2018-09-19T15:14:47.149Z,6.93
2018-09-19T15:17:16.276Z,7.70
2018-09-19T15:19:45.577Z,5.87
2018-09-19T15:22:14.342Z,7.30
2018-09-19T15:24:43.411Z,11.70
2018-09-19T15:27:12.918Z,13.37
2018-09-19T15:29:41.514Z,15.43
2018-09-19T15:32:10.115Z,7.93
2018-09-19T15:34:38.597Z,10.90
2018-09-19T15:37:07.305Z,8.77
2018-09-19T15:39:35.779Z,10.77
2018-09-19T15:42:04.242Z,7.93
2018-09-19T15:44:33.342Z,7.63
2018-09-19T15:47:01.896Z,16.47
2018-09-19T15:49:30.320Z,10.23
2018-09-19T15:51:58.823Z,7.30
2018-09-19T15:54:27.294Z,5.60
2018-09-19T15:56:55.774Z,11.07
2018-09-19T15:59:24.228Z,7.57
2018-09-19T16:01:52.707Z,9.07
2018-09-19T16:04:21.199Z,9.17
2018-09-19T16:06:49.662Z,10.23
2018-09-19T16:09:18.161Z,6.37
2018-09-19T16:11:46.627Z,7.00
2018-09-19T16:14:15.302Z,9.57
2018-09-19T16:16:43.723Z,9.13
2018-09-19T16:19:12.206Z,12.18
2018-09-19T16:21:40.814Z,10.63
2018-09-19T16:24:09.317Z,8.07
2018-09-19T16:26:37.807Z,9.87
2018-09-19T16:29:06.689Z,7.83
2018-09-19T16:31:35.166Z,7.80
2018-09-19T16:34:03.795Z,6.40
2018-09-19T16:36:32.912Z,5.63
2018-09-19T16:39:09.542Z,6.03
2018-09-19T16:41:38.602Z,12.53
2018-09-19T16:44:07.983Z,7.93
2018-09-19T16:46:37.308Z,12.33
2018-09-19T16:49:06.483Z,14.67
2018-09-19T16:51:35.239Z,12.47
2018-09-19T16:54:03.691Z,9.80
2018-09-19T16:56:32.119Z,8.90
2018-09-19T16:59:00.586Z,6.77
2018-09-19T17:01:29.734Z,8.50
2018-09-19T17:03:59.069Z,6.27
2018-09-19T17:06:27.584Z,12.37
2018-09-19T17:08:56.139Z,6.13
2018-09-19T17:11:24.671Z,9.13
2018-09-19T17:13:53.153Z,7.67
2018-09-19T17:16:21.566Z,13.37
2018-09-19T17:18:50.038Z,12.03
2018-09-19T17:21:18.486Z,13.40
2018-09-19T17:23:46.947Z,15.87
2018-09-19T17:26:15.377Z,9.20
2018-09-19T17:28:45.284Z,7.40
2018-09-19T17:31:13.739Z,9.63
2018-09-19T17:33:42.329Z,10.97
2018-09-19T17:36:10.808Z,5.43
2018-09-19T17:38:39.290Z,6.87
2018-09-19T17:41:07.815Z,12.93
2018-09-19T17:43:36.315Z,10.47
2018-09-19T17:46:04.838Z,8.30
2018-09-19T17:48:33.334Z,10.43
2018-09-19T17:51:01.876Z,14.97
2018-09-19T17:53:30.413Z,14.83
2018-09-19T17:55:58.995Z,10.77
2018-09-19T17:58:27.518Z,4.20
2018-09-19T18:00:56.063Z,9.27
2018-09-19T18:03:24.539Z,16.30
2018-09-19T18:05:53.034Z,12.23
2018-09-19T18:08:21.640Z,15.07
2018-09-19T18:10:50.442Z,17.03
2018-09-19T18:13:19.882Z,10.40
2018-09-19T18:15:48.505Z,9.53
2018-09-19T18:18:17.017Z,5.87
2018-09-19T18:20:45.520Z,9.90
2018-09-19T18:23:14.113Z,12.10
2018-09-19T18:25:42.599Z,10.90
2018-09-19T18:28:11.084Z,7.00
2018-09-19T18:30:39.579Z,10.07
2018-09-19T18:33:09.066Z,4.80
2018-09-19T18:35:37.724Z,7.37
2018-09-19T18:38:06.187Z,6.37
2018-09-19T18:40:34.655Z,10.70
2018-09-19T18:43:03.110Z,8.80
2018-09-19T18:45:31.594Z,6.67
2018-09-19T18:48:00.032Z,8.43
2018-09-19T18:50:28.507Z,10.13
2018-09-19T18:52:56.979Z,7.73
2018-09-19T18:55:25.461Z,6.60
2018-09-19T18:57:53.940Z,9.80
2018-09-19T19:00:22.399Z,9.13
2018-09-19T19:02:50.838Z,10.87
2018-09-19T19:05:19.356Z,9.67
2018-09-19T19:07:47.976Z,10.10
2018-09-19T19:10:16.572Z,6.20
2018-09-19T19:12:45.108Z,10.50
2018-09-19T19:15:13.636Z,13.27
2018-09-19T19:17:42.149Z,11.90
2018-09-19T19:20:12.055Z,12.67
2018-09-19T19:22:40.923Z,13.03
2018-09-19T19:25:09.574Z,10.93
2018-09-19T19:27:38.062Z,8.83
2018-09-19T19:30:06.674Z,8.53
2018-09-19T19:32:35.163Z,10.77
2018-09-19T19:35:03.702Z,8.13
2018-09-19T19:37:32.362Z,10.53
2018-09-19T19:40:01.066Z,11.30
2018-09-19T19:42:29.621Z,14.33
2018-09-19T19:44:58.174Z,12.03
2018-09-19T19:47:26.693Z,17.80
2018-09-19T19:49:55.232Z,12.73
2018-09-19T19:52:23.706Z,21.43
2018-09-19T19:54:52.202Z,11.33
2018-09-19T19:57:20.686Z,14.60
2018-09-19T19:59:49.224Z,16.40
2018-09-19T20:02:17.659Z,17.17
2018-09-19T20:04:46.183Z,14.43
2018-09-19T20:07:14.824Z,14.80
2018-09-19T20:09:43.363Z,19.33
2018-09-19T20:12:11.781Z,19.17
2018-09-19T20:14:40.252Z,13.53
2018-09-19T20:17:11.196Z,26.20
2018-09-19T20:19:42.585Z,26.30
2018-09-19T20:22:15.970Z,22.13
2018-09-19T20:24:44.522Z,22.93
2018-09-19T20:27:13.004Z,29.47
2018-09-19T20:29:41.465Z,25.70
2018-09-19T20:32:09.937Z,24.90
2018-09-19T20:34:38.454Z,30.83
2018-09-19T20:37:07.896Z,30.20
2018-09-19T20:39:36.426Z,34.93
2018-09-19T20:42:04.920Z,33.97
2018-09-19T20:44:33.397Z,39.30
2018-09-19T20:47:01.948Z,37.30
2018-09-19T20:49:31.479Z,36.43
2018-09-19T20:52:00.028Z,38.47
2018-09-19T20:54:28.569Z,36.73
2018-09-19T20:56:57.098Z,32.10
2018-09-19T20:59:27.580Z,36.63
2018-09-19T21:01:56.091Z,32.87
2018-09-19T21:04:24.635Z,39.90
2018-09-19T21:06:53.104Z,31.87
2018-09-19T21:09:21.615Z,34.63
2018-09-19T21:11:54.014Z,27.20
2018-09-19T21:14:22.828Z,32.57
2018-09-19T21:16:51.671Z,35.43
2018-09-19T21:19:20.148Z,37.93
2018-09-19T21:21:48.705Z,35.13
2018-09-19T21:24:17.392Z,28.90
2018-09-19T21:26:45.862Z,28.23
2018-09-19T21:29:14.371Z,27.27
2018-09-19T21:31:42.840Z,31.13
2018-09-19T21:34:12.472Z,34.30
2018-09-19T21:36:40.955Z,33.90
2018-09-19T21:39:10.526Z,35.73
2018-09-19T21:41:39.231Z,31.80
2018-09-19T21:44:07.698Z,28.17
2018-09-19T21:46:36.171Z,33.07
2018-09-19T21:49:04.625Z,35.17
2018-09-19T21:51:33.146Z,34.67
2018-09-19T21:54:01.622Z,32.13
2018-09-19T21:56:30.121Z,33.43
2018-09-19T21:58:58.585Z,31.47
2018-09-19T22:01:32.474Z,32.87
2018-09-19T22:04:01.047Z,24.10
2018-09-19T22:06:29.531Z,35.90
2018-09-19T22:08:58.092Z,30.30
2018-09-19T22:11:26.563Z,29.80
2018-09-19T22:13:55.083Z,26.87
2018-09-19T22:16:23.668Z,31.23
2018-09-19T22:18:52.166Z,28.87
2018-09-19T22:21:20.625Z,25.67
2018-09-19T22:23:49.274Z,36.20
2018-09-19T22:26:18.482Z,31.20
2018-09-19T22:28:47.168Z,30.30
2018-09-19T22:31:15.743Z,32.80
2018-09-19T22:33:44.377Z,34.13
2018-09-19T22:36:13.154Z,39.30
2018-09-19T22:38:41.649Z,31.90
2018-09-19T22:41:10.340Z,30.33
2018-09-19T22:43:39.039Z,28.23
2018-09-19T22:46:07.744Z,34.23
2018-09-19T22:48:36.353Z,33.73
2018-09-19T22:51:04.938Z,28.47
2018-09-19T22:53:33.528Z,32.97
2018-09-19T22:56:02.236Z,33.30
2018-09-19T22:58:30.818Z,24.13
2018-09-19T23:00:59.512Z,23.33
2018-09-19T23:03:28.014Z,32.60
2018-09-19T23:05:57.051Z,27.83
2018-09-19T23:08:25.745Z,30.87
2018-09-19T23:10:54.239Z,27.97
2018-09-19T23:13:22.898Z,25.20
2018-09-19T23:15:51.574Z,28.00
2018-09-19T23:18:20.838Z,22.70
2018-09-19T23:20:50.314Z,21.93
2018-09-19T23:23:18.806Z,21.87
2018-09-19T23:25:47.302Z,23.47
2018-09-19T23:28:15.798Z,23.33
2018-09-19T23:30:44.315Z,20.17
2018-09-19T23:33:13.053Z,24.13
2018-09-19T23:35:41.715Z,21.53
2018-09-19T23:38:10.264Z,25.37
2018-09-19T23:40:38.789Z,20.63
2018-09-19T23:43:07.292Z,22.00
2018-09-19T23:45:35.976Z,18.60
2018-09-19T23:48:04.608Z,18.30
2018-09-19T23:50:33.415Z,14.80
2018-09-19T23:53:01.995Z,13.50
2018-09-19T23:55:30.500Z,14.63
2018-09-19T23:57:59.097Z,15.97
